Time;durP1;ratioP1;P1;durP2;ratioP2;P2;SDS_P1;SDS_P2;PMS_P1;PMS_P2;Temp;Humidity;BMP_temperature;BMP_pressure;BME280_temperature;BME280_humidity;BME280_pressure;Samples;Min_cycle;Max_cycle;Signal;HPM_P1;HPM_P2
2023/11/03 00:02:15;;;;;;;1.08;0.25;;;9.10;99.90;;;;;;5066640;28;20467;-70
2023/11/03 00:04:40;;;;;;;0.30;0.20;;;9.00;99.90;;;;;;5051313;28;20048;-70
2023/11/03 00:07:06;;;;;;;0.45;0.10;;;8.90;99.90;;;;;;5051224;28;20408;-70
2023/11/03 00:09:38;;;;;;;0.73;0.20;;;8.90;99.90;;;;;;5051077;28;20052;-71
2023/11/03 00:12:06;;;;;;;0.57;0.35;;;8.80;99.90;;;;;;5051058;28;20404;-71
2023/11/03 00:14:34;;;;;;;0.75;0.63;;;8.80;99.90;;;;;;5033591;28;20048;-70
2023/11/03 00:17:01;;;;;;;0.50;0.25;;;8.70;99.90;;;;;;5051228;28;20029;-71
2023/11/03 00:19:27;;;;;;;0.20;0.10;;;8.60;99.90;;;;;;5066575;28;20119;-70
2023/11/03 00:21:53;;;;;;;0.10;0.10;;;8.60;99.90;;;;;;5050782;28;20515;-70
2023/11/03 00:24:19;;;;;;;1.90;0.38;;;8.50;99.90;;;;;;5051236;28;20045;-71
2023/11/03 00:26:45;;;;;;;0.52;0.22;;;8.60;99.90;;;;;;5051172;28;20045;-71
2023/11/03 00:29:11;;;;;;;0.60;0.30;;;8.60;99.90;;;;;;5051174;28;20041;-70
2023/11/03 00:31:40;;;;;;;0.57;0.25;;;8.50;99.90;;;;;;5050766;28;20497;-71
2023/11/03 00:34:06;;;;;;;1.50;0.22;;;8.60;99.90;;;;;;5050956;28;20063;-70
2023/11/03 00:36:32;;;;;;;1.88;0.25;;;8.60;99.90;;;;;;5050942;28;20036;-71
2023/11/03 00:38:58;;;;;;;0.52;0.32;;;8.60;99.90;;;;;;5033194;28;20083;-70
2023/11/03 00:41:24;;;;;;;0.60;0.30;;;8.60;99.90;;;;;;5066465;28;20447;-70
2023/11/03 00:43:50;;;;;;;0.68;0.20;;;8.60;99.90;;;;;;5035920;28;20053;-70
2023/11/03 00:46:16;;;;;;;0.32;0.22;;;8.60;99.90;;;;;;5054645;28;20040;-71
2023/11/03 00:48:43;;;;;;;0.73;0.30;;;8.60;99.90;;;;;;5069856;28;20045;-70
2023/11/03 00:51:09;;;;;;;0.95;0.45;;;8.60;99.90;;;;;;5054107;28;20041;-70
2023/11/03 00:53:35;;;;;;;1.00;0.40;;;8.70;99.90;;;;;;5054341;28;20044;-70
2023/11/03 00:56:04;;;;;;;1.27;0.55;;;8.70;99.90;;;;;;5054292;28;20409;-70
2023/11/03 00:58:30;;;;;;;1.83;0.40;;;8.70;99.90;;;;;;5054358;28;20033;-70
2023/11/03 01:00:56;;;;;;;0.85;0.57;;;8.70;99.90;;;;;;5069595;28;20037;-70
2023/11/03 01:03:23;;;;;;;1.02;0.60;;;8.80;99.90;;;;;;5063202;28;20072;-70
2023/11/03 01:05:49;;;;;;;2.00;0.80;;;8.80;99.90;;;;;;5076203;28;20052;-71
2023/11/03 01:08:15;;;;;;;1.88;0.98;;;8.80;99.90;;;;;;5076166;28;20403;-70
2023/11/03 01:10:40;;;;;;;2.40;1.20;;;8.80;99.90;;;;;;5094123;28;20453;-70
2023/11/03 01:13:13;;;;;;;2.08;0.80;;;8.90;99.90;;;;;;5094015;28;20058;-71
2023/11/03 01:15:39;;;;;;;3.53;0.70;;;8.80;99.90;;;;;;5076128;28;20074;-70
2023/11/03 01:18:06;;;;;;;2.30;1.23;;;8.80;99.90;;;;;;5075932;28;20071;-70
2023/11/03 01:20:32;;;;;;;3.85;1.38;;;8.90;99.90;;;;;;5094252;28;20103;-71
2023/11/03 01:22:58;;;;;;;1.85;1.40;;;8.90;99.90;;;;;;5075733;28;20127;-70
2023/11/03 01:25:24;;;;;;;2.53;1.05;;;8.90;99.90;;;;;;5076217;28;20534;-70
2023/11/03 01:27:51;;;;;;;2.58;1.10;;;8.90;99.90;;;;;;5090568;28;20046;-70
2023/11/03 01:30:20;;;;;;;2.55;1.63;;;9.00;99.90;;;;;;5071883;28;20052;-70
2023/11/03 01:32:52;;;;;;;2.63;1.40;;;8.90;99.90;;;;;;5035436;28;20049;-70
2023/11/03 01:35:24;;;;;;;2.07;1.40;;;9.00;99.90;;;;;;5053913;28;20122;-70
2023/11/03 01:37:51;;;;;;;1.33;1.00;;;9.00;99.90;;;;;;5053670;28;20264;-70
2023/11/03 01:40:17;;;;;;;3.45;1.50;;;9.00;99.90;;;;;;5053533;28;20033;-71
2023/11/03 01:42:43;;;;;;;3.47;1.50;;;9.00;99.90;;;;;;5042880;28;20051;-71
2023/11/03 01:45:10;;;;;;;1.73;1.17;;;9.00;99.90;;;;;;5073233;28;20040;-70
2023/11/03 01:47:36;;;;;;;3.45;1.30;;;9.00;99.90;;;;;;5073620;28;20044;-70
2023/11/03 01:50:02;;;;;;;1.95;1.20;;;9.00;99.90;;;;;;5073480;28;20043;-70
2023/11/03 01:52:29;;;;;;;2.08;1.17;;;9.10;99.90;;;;;;5073149;28;20040;-70
2023/11/03 01:54:55;;;;;;;1.77;1.33;;;9.00;99.90;;;;;;5072210;28;20047;-70
2023/11/03 01:57:21;;;;;;;2.40;1.60;;;9.10;99.90;;;;;;5073260;28;20040;-70
2023/11/03 01:59:49;;;;;;;2.15;1.27;;;9.10;99.90;;;;;;5072913;28;20075;-70
2023/11/03 02:02:16;;;;;;;2.95;1.52;;;9.00;99.90;;;;;;5072840;28;20094;-70
2023/11/03 02:04:41;;;;;;;4.95;1.27;;;9.10;99.90;;;;;;5055402;28;20040;-70
2023/11/03 02:07:07;;;;;;;2.25;1.38;;;9.10;99.90;;;;;;5072911;28;20628;-70
2023/11/03 02:09:33;;;;;;;2.17;1.10;;;9.10;99.90;;;;;;5054998;28;20134;-70
2023/11/03 02:11:59;;;;;;;4.95;1.80;;;9.00;99.90;;;;;;5072516;28;20047;-70
2023/11/03 02:14:25;;;;;;;1.48;1.00;;;9.10;99.90;;;;;;5072777;28;20079;-70
2023/11/03 02:16:50;;;;;;;6.22;1.33;;;9.10;99.90;;;;;;5072994;28;20176;-70
2023/11/03 02:19:16;;;;;;;1.38;0.90;;;9.10;99.90;;;;;;5055083;28;20044;-70
2023/11/03 02:21:43;;;;;;;2.13;1.10;;;9.10;99.90;;;;;;5072612;28;20518;-71
2023/11/03 02:24:09;;;;;;;1.33;1.20;;;9.00;99.90;;;;;;5054611;28;20121;-70
2023/11/03 02:26:35;;;;;;;3.63;1.20;;;9.00;99.90;;;;;;5038087;28;20068;-70
2023/11/03 02:29:05;;;;;;;1.90;1.40;;;9.00;99.90;;;;;;5054560;28;20036;-70
2023/11/03 02:31:31;;;;;;;2.35;1.25;;;9.00;99.90;;;;;;5072459;28;20043;-70
2023/11/03 02:33:57;;;;;;;1.23;0.77;;;9.00;99.90;;;;;;5054443;28;20036;-70
2023/11/03 02:36:24;;;;;;;3.88;1.75;;;8.90;99.90;;;;;;5054591;28;20511;-71
2023/11/03 02:38:54;;;;;;;3.63;1.67;;;9.00;99.90;;;;;;5072324;28;20508;-71
2023/11/03 02:41:20;;;;;;;2.70;1.08;;;9.00;99.90;;;;;;5072159;28;20566;-71
2023/11/03 02:43:46;;;;;;;2.50;1.00;;;8.90;99.90;;;;;;5054491;28;20048;-72
2023/11/03 02:46:11;;;;;;;2.33;1.30;;;8.90;99.90;;;;;;5072519;28;20037;-72
2023/11/03 02:48:37;;;;;;;2.65;0.90;;;8.90;99.90;;;;;;5072272;28;20047;-72
2023/11/03 02:51:03;;;;;;;2.22;1.05;;;8.90;99.90;;;;;;5072143;28;20029;-72
2023/11/03 02:53:32;;;;;;;2.13;1.10;;;8.90;99.90;;;;;;5054054;28;20040;-72
2023/11/03 02:55:58;;;;;;;3.85;1.42;;;8.90;99.90;;;;;;5072144;28;20041;-71
2023/11/03 02:58:34;;;;;;;1.80;1.38;;;8.90;99.90;;;;;;5072286;28;20403;-72
2023/11/03 03:00:59;;;;;;;4.82;1.35;;;8.90;99.90;;;;;;5071828;28;20040;-72
2023/11/03 03:03:25;;;;;;;1.63;1.27;;;8.90;99.90;;;;;;5053647;28;20487;-72
2023/11/03 03:05:50;;;;;;;1.77;1.10;;;8.90;99.90;;;;;;5071622;28;20115;-72
2023/11/03 03:08:16;;;;;;;3.00;1.23;;;8.90;99.90;;;;;;5071936;28;20040;-71
2023/11/03 03:10:41;;;;;;;1.83;1.10;;;9.00;99.90;;;;;;5071696;28;20043;-72
2023/11/03 03:13:07;;;;;;;1.00;0.82;;;8.90;99.90;;;;;;5071343;28;20040;-72
2023/11/03 03:15:33;;;;;;;3.22;1.00;;;8.90;99.90;;;;;;5071849;28;20070;-72
2023/11/03 03:17:59;;;;;;;2.55;1.33;;;8.90;99.90;;;;;;5053536;28;20415;-72
2023/11/03 03:20:25;;;;;;;2.00;1.10;;;8.90;99.90;;;;;;5071047;28;20036;-72
2023/11/03 03:22:51;;;;;;;2.65;1.50;;;8.90;99.90;;;;;;5071479;28;20089;-72
2023/11/03 03:25:17;;;;;;;4.80;1.48;;;8.90;99.90;;;;;;5053915;28;20123;-72
2023/11/03 03:27:42;;;;;;;1.75;1.00;;;8.90;99.90;;;;;;5071882;28;20043;-72
2023/11/03 03:30:09;;;;;;;1.80;1.10;;;8.90;99.90;;;;;;5071700;28;20048;-71
2023/11/03 03:32:34;;;;;;;2.42;1.00;;;8.90;99.90;;;;;;5071215;28;20048;-72
2023/11/03 03:35:00;;;;;;;3.15;1.10;;;8.90;99.90;;;;;;5071771;28;20119;-72
2023/11/03 03:37:26;;;;;;;2.22;0.95;;;8.90;99.90;;;;;;5071308;28;20392;-71
2023/11/03 03:39:51;;;;;;;2.42;1.25;;;8.90;99.90;;;;;;5053199;28;20040;-72
2023/11/03 03:42:19;;;;;;;3.28;1.45;;;8.80;99.90;;;;;;5071240;28;20479;-72
2023/11/03 03:44:46;;;;;;;1.25;1.02;;;9.00;99.90;;;;;;5071513;28;20055;-71
2023/11/03 03:47:12;;;;;;;3.60;1.30;;;9.00;99.90;;;;;;5053726;28;20451;-72
2023/11/03 03:49:38;;;;;;;1.75;1.45;;;9.00;99.90;;;;;;5071297;28;20040;-71
2023/11/03 03:52:06;;;;;;;2.75;1.55;;;9.00;99.90;;;;;;5070929;28;20572;-72
2023/11/03 03:54:32;;;;;;;2.50;1.10;;;9.00;99.90;;;;;;5071097;28;20037;-72
2023/11/03 03:56:58;;;;;;;5.57;1.10;;;9.10;99.90;;;;;;5071570;28;20043;-72
2023/11/03 03:59:24;;;;;;;5.40;1.30;;;9.10;99.90;;;;;;5071501;28;20068;-71
2023/11/03 04:01:50;;;;;;;2.25;1.13;;;9.10;99.90;;;;;;5052368;28;20132;-72
2023/11/03 04:04:15;;;;;;;4.20;1.40;;;9.10;99.90;;;;;;5071165;28;20036;-71
2023/11/03 04:06:44;;;;;;;3.63;1.40;;;9.10;99.90;;;;;;5053429;28;20036;-72
2023/11/03 04:09:10;;;;;;;4.47;1.25;;;9.10;99.90;;;;;;5071267;28;20482;-71
2023/11/03 04:11:36;;;;;;;3.85;1.42;;;9.10;99.90;;;;;;5070802;28;20116;-71
2023/11/03 04:14:02;;;;;;;3.10;1.25;;;9.10;99.90;;;;;;5071114;28;20079;-71
2023/11/03 04:16:35;;;;;;;3.25;1.25;;;9.10;99.90;;;;;;5071364;28;20106;-72
2023/11/03 04:19:01;;;;;;;;;;;9.10;99.90;;;;;;5074940;28;20040;-71
2023/11/03 04:21:27;;;;;;;2.00;1.45;;;9.10;99.90;;;;;;5074214;28;19916;-71
2023/11/03 04:23:52;;;;;;;3.15;1.38;;;9.10;99.90;;;;;;5057060;28;20122;-71
2023/11/03 04:26:18;;;;;;;4.97;1.92;;;9.10;99.90;;;;;;5057049;28;20488;-72
2023/11/03 04:28:44;;;;;;;2.88;1.27;;;9.10;99.90;;;;;;5056736;28;20040;-72
2023/11/03 04:31:09;;;;;;;4.85;1.70;;;9.10;99.90;;;;;;5074450;28;20131;-72
2023/11/03 04:33:35;;;;;;;2.80;1.58;;;9.10;99.90;;;;;;5074503;28;20032;-71
2023/11/03 04:36:01;;;;;;;2.08;1.35;;;9.10;99.90;;;;;;5074603;28;20037;-71
2023/11/03 04:38:26;;;;;;;3.08;1.42;;;9.20;99.90;;;;;;5074830;28;20048;-72
2023/11/03 04:40:52;;;;;;;5.03;1.80;;;9.20;99.90;;;;;;5074708;28;20072;-72
2023/11/03 04:43:20;;;;;;;2.03;1.30;;;9.20;99.90;;;;;;5074056;28;20076;-71
2023/11/03 04:45:45;;;;;;;3.90;1.35;;;9.20;99.90;;;;;;5074628;28;20090;-71
2023/11/03 04:48:11;;;;;;;5.05;1.52;;;9.20;99.90;;;;;;5074353;28;20044;-72
2023/11/03 04:50:37;;;;;;;4.35;1.65;;;9.20;99.90;;;;;;5074284;28;20032;-72
2023/11/03 04:53:03;;;;;;;5.63;1.83;;;9.20;99.90;;;;;;5073570;28;20052;-71
2023/11/03 04:55:28;;;;;;;4.88;3.08;;;9.20;99.90;;;;;;5074240;28;20040;-71
2023/11/03 04:57:55;;;;;;;3.38;1.58;;;9.20;99.90;;;;;;5074419;28;20032;-71
2023/11/03 05:00:21;;;;;;;4.93;2.00;;;9.20;99.90;;;;;;5074306;28;20041;-71
2023/11/03 05:02:47;;;;;;;3.17;1.77;;;9.10;99.90;;;;;;5074029;28;20033;-71
2023/11/03 05:05:12;;;;;;;7.22;1.67;;;9.20;99.90;;;;;;5074084;28;20404;-71
2023/11/03 05:07:39;;;;;;;5.57;1.80;;;9.10;99.90;;;;;;5074211;28;20491;-71
2023/11/03 05:10:06;;;;;;;5.85;1.90;;;9.20;99.90;;;;;;5073958;28;20542;-71
2023/11/03 05:12:32;;;;;;;3.38;1.50;;;9.10;99.90;;;;;;5073940;28;20561;-72
2023/11/03 05:14:57;;;;;;;2.22;1.35;;;9.10;99.90;;;;;;5074100;28;20040;-71
2023/11/03 05:17:23;;;;;;;4.25;1.50;;;9.10;99.90;;;;;;5073631;28;20036;-71
2023/11/03 05:19:50;;;;;;;3.15;1.60;;;9.10;99.90;;;;;;5037827;28;20454;-71
2023/11/03 05:22:19;;;;;;;7.57;2.05;;;9.00;99.90;;;;;;5054659;28;20044;-71
2023/11/03 05:24:46;;;;;;;1.83;1.40;;;9.10;99.90;;;;;;5073503;28;20551;-71
2023/11/03 05:27:13;;;;;;;2.42;1.52;;;9.10;99.90;;;;;;5055884;28;20048;-72
2023/11/03 05:29:40;;;;;;;6.55;1.85;;;9.10;99.90;;;;;;5055715;28;20511;-71
2023/11/03 05:32:06;;;;;;;4.10;1.90;;;9.10;99.90;;;;;;5073247;28;20500;-72
2023/11/03 05:34:33;;;;;;;3.10;1.60;;;9.10;99.90;;;;;;5073507;28;20028;-71
2023/11/03 05:36:58;;;;;;;2.88;1.73;;;9.00;99.90;;;;;;5055681;28;20071;-71
2023/11/03 05:39:24;;;;;;;4.15;1.48;;;9.10;99.90;;;;;;5073732;28;20404;-72
2023/11/03 05:41:49;;;;;;;3.78;1.67;;;9.00;99.90;;;;;;5055113;28;20488;-72
2023/11/03 05:44:15;;;;;;;4.40;1.80;;;9.00;99.90;;;;;;5073424;28;20162;-72
2023/11/03 05:46:41;;;;;;;4.80;1.50;;;9.10;99.90;;;;;;5073457;28;20036;-71
2023/11/03 05:49:06;;;;;;;3.80;2.00;;;9.00;99.90;;;;;;5073232;28;20448;-72
2023/11/03 05:51:32;;;;;;;2.33;1.50;;;9.00;99.90;;;;;;5073027;28;20072;-72
2023/11/03 05:53:57;;;;;;;2.92;1.50;;;9.00;99.90;;;;;;5073342;28;20114;-72
2023/11/03 05:56:23;;;;;;;4.97;2.03;;;9.10;99.90;;;;;;5073220;28;20032;-71
2023/11/03 05:58:50;;;;;;;4.03;1.85;;;9.10;99.90;;;;;;5073165;28;20093;-71
2023/11/03 06:01:17;;;;;;;5.63;1.83;;;9.10;99.90;;;;;;5072762;28;20404;-72
2023/11/03 06:03:43;;;;;;;4.72;1.73;;;9.10;99.90;;;;;;5054818;28;20037;-71
2023/11/03 06:06:09;;;;;;;4.80;1.88;;;9.10;99.90;;;;;;5072806;28;20685;-72
2023/11/03 06:08:35;;;;;;;3.28;1.38;;;9.20;99.90;;;;;;5073106;28;20112;-71
2023/11/03 06:11:00;;;;;;;3.55;1.50;;;9.20;99.90;;;;;;5073011;28;20500;-72
2023/11/03 06:13:26;;;;;;;3.33;1.40;;;9.10;99.90;;;;;;5054557;28;20495;-72
2023/11/03 06:15:51;;;;;;;2.55;1.58;;;9.20;99.90;;;;;;5072743;28;20040;-71
2023/11/03 06:18:17;;;;;;;5.50;1.38;;;9.10;99.90;;;;;;5072536;28;20090;-72
2023/11/03 06:20:42;;;;;;;4.88;1.95;;;9.10;99.90;;;;;;5072775;28;20111;-72
2023/11/03 06:23:08;;;;;;;2.22;1.15;;;9.10;99.90;;;;;;5072331;28;20047;-72
2023/11/03 06:25:33;;;;;;;2.03;1.30;;;9.20;99.90;;;;;;5054709;28;20114;-72
2023/11/03 06:27:59;;;;;;;2.35;1.08;;;9.10;99.90;;;;;;5072570;28;20028;-72
2023/11/03 06:30:25;;;;;;;3.38;1.50;;;9.20;99.90;;;;;;5054535;28;20621;-72
2023/11/03 06:32:50;;;;;;;2.60;1.40;;;9.20;99.90;;;;;;5054267;28;20048;-71
2023/11/03 06:35:16;;;;;;;1.95;1.30;;;9.20;99.90;;;;;;5054520;28;20041;-72
2023/11/03 06:37:42;;;;;;;3.95;1.60;;;9.20;99.90;;;;;;5054452;28;20116;-72
2023/11/03 06:40:11;;;;;;;3.83;1.50;;;9.20;99.90;;;;;;5071591;28;20044;-72
2023/11/03 06:42:41;;;;;;;5.05;1.50;;;9.30;99.90;;;;;;5053675;28;20051;-71
2023/11/03 06:45:07;;;;;;;4.55;1.30;;;9.30;99.90;;;;;;5054429;28;20056;-72
2023/11/03 06:47:37;;;;;;;3.35;1.10;;;9.20;99.90;;;;;;5071860;28;20127;-72
2023/11/03 06:50:03;;;;;;;1.55;1.15;;;9.20;99.90;;;;;;5072005;28;20127;-72
2023/11/03 06:52:29;;;;;;;3.20;1.52;;;9.30;99.90;;;;;;5071604;28;20068;-72
2023/11/03 06:54:55;;;;;;;3.83;1.40;;;9.30;99.90;;;;;;5037458;28;20052;-72
2023/11/03 06:57:21;;;;;;;2.05;1.17;;;9.20;99.90;;;;;;5072219;28;20466;-72
2023/11/03 06:59:47;;;;;;;3.58;1.48;;;9.20;99.90;;;;;;5071920;28;20032;-71
2023/11/03 07:02:12;;;;;;;3.05;1.30;;;9.30;99.90;;;;;;5071256;28;20048;-72
2023/11/03 07:04:38;;;;;;;4.88;1.77;;;9.20;99.90;;;;;;5072049;28;20045;-71
2023/11/03 07:07:07;;;;;;;2.58;1.60;;;9.30;99.90;;;;;;5072061;28;20155;-71
2023/11/03 07:09:33;;;;;;;4.18;1.45;;;9.30;99.90;;;;;;5054168;28;20088;-72
2023/11/03 07:12:00;;;;;;;4.03;1.30;;;9.30;99.90;;;;;;5053477;28;20086;-72
2023/11/03 07:14:25;;;;;;;6.47;1.98;;;9.30;99.90;;;;;;5054044;28;20119;-72
2023/11/03 07:16:52;;;;;;;4.28;1.58;;;9.30;99.90;;;;;;5053782;28;20594;-72
2023/11/03 07:19:18;;;;;;;5.55;2.03;;;9.30;99.90;;;;;;5054041;28;20040;-72
2023/11/03 07:21:51;;;;;;;5.70;1.65;;;9.30;99.90;;;;;;5071621;28;20112;-72
2023/11/03 07:24:19;;;;;;;4.53;1.88;;;9.40;99.90;;;;;;5071363;28;20107;-72
2023/11/03 07:26:44;;;;;;;7.55;1.95;;;9.30;99.90;;;;;;5053842;28;20048;-72
2023/11/03 07:29:10;;;;;;;4.90;1.80;;;9.40;99.90;;;;;;5071612;28;20517;-72
2023/11/03 07:31:38;;;;;;;2.88;1.92;;;9.30;99.90;;;;;;5071605;28;20185;-72
2023/11/03 07:34:05;;;;;;;6.72;1.70;;;9.40;99.90;;;;;;5072157;28;20058;-72
2023/11/03 07:36:30;;;;;;;5.15;2.08;;;9.30;99.90;;;;;;5073906;28;20086;-72
2023/11/03 07:38:58;;;;;;;3.72;1.55;;;9.30;99.90;;;;;;5073666;28;20039;-72
2023/11/03 07:41:24;;;;;;;4.13;2.17;;;9.40;99.90;;;;;;5091508;28;20396;-72
2023/11/03 07:43:51;;;;;;;5.93;1.73;;;9.40;99.90;;;;;;5091468;28;20044;-72
2023/11/03 07:46:19;;;;;;;5.00;2.22;;;9.40;99.90;;;;;;5091898;28;20123;-72
2023/11/03 07:48:45;;;;;;;3.60;1.83;;;9.40;99.90;;;;;;5073977;28;20055;-72
2023/11/03 07:51:10;;;;;;;4.88;1.95;;;9.40;99.90;;;;;;5073638;28;20048;-72
2023/11/03 07:53:36;;;;;;;4.80;1.95;;;9.40;99.90;;;;;;5076892;28;20397;-72
2023/11/03 07:56:02;;;;;;;4.90;1.83;;;9.40;99.90;;;;;;5077592;28;20444;-72
2023/11/03 07:58:28;;;;;;;5.22;2.20;;;9.40;99.90;;;;;;5077769;28;20522;-72
2023/11/03 08:00:57;;;;;;;4.53;1.92;;;9.40;99.90;;;;;;5077109;28;20068;-72
2023/11/03 08:03:24;;;;;;;7.25;2.30;;;9.40;99.90;;;;;;5077096;28;20052;-72
2023/11/03 08:05:50;;;;;;;4.90;2.58;;;9.30;99.90;;;;;;5077414;28;20145;-72
2023/11/03 08:08:16;;;;;;;5.35;2.70;;;9.30;99.90;;;;;;5077451;28;20051;-72
2023/11/03 08:10:41;;;;;;;5.07;2.40;;;9.40;99.90;;;;;;5077533;28;20109;-72
2023/11/03 08:13:07;;;;;;;5.70;2.40;;;9.40;99.90;;;;;;5077097;28;20036;-72
2023/11/03 08:15:33;;;;;;;5.90;2.50;;;9.30;99.90;;;;;;5077367;28;20047;-71
2023/11/03 08:18:00;;;;;;;8.13;2.55;;;9.40;99.90;;;;;;5095346;28;20564;-71
2023/11/03 08:20:26;;;;;;;6.25;2.60;;;9.40;99.90;;;;;;5095418;28;20044;-71
2023/11/03 08:22:51;;;;;;;4.85;2.53;;;9.40;99.90;;;;;;5094984;28;20407;-71
2023/11/03 08:25:17;;;;;;;8.20;3.30;;;9.40;99.90;;;;;;5095198;28;20039;-71
2023/11/03 08:27:44;;;;;;;4.97;2.72;;;9.50;99.90;;;;;;5095260;28;20032;-72
2023/11/03 08:30:09;;;;;;;6.25;2.60;;;9.50;99.90;;;;;;5095049;28;20067;-72
2023/11/03 08:32:36;;;;;;;5.95;2.20;;;9.40;99.90;;;;;;5094580;28;20080;-72
2023/11/03 08:35:05;;;;;;;5.50;2.65;;;9.50;99.90;;;;;;5095328;28;20046;-73
2023/11/03 08:37:31;;;;;;;6.50;2.58;;;9.50;99.90;;;;;;5064976;28;20040;-72
2023/11/03 08:39:57;;;;;;;9.68;3.25;;;9.50;99.90;;;;;;5054474;28;20033;-72
2023/11/03 08:42:23;;;;;;;10.00;3.30;;;9.50;99.90;;;;;;5054287;28;20123;-72
2023/11/03 08:44:49;;;;;;;8.43;2.70;;;9.50;99.90;;;;;;5116799;22;20479;-71
2023/11/03 08:47:16;;;;;;;6.97;3.40;;;9.50;99.90;;;;;;5114781;28;20035;-70
2023/11/03 08:49:42;;;;;;;6.65;2.55;;;9.60;99.90;;;;;;5113153;28;20122;-70
2023/11/03 08:52:07;;;;;;;9.15;2.67;;;9.50;99.90;;;;;;5113556;28;20089;-71
2023/11/03 08:54:33;;;;;;;10.93;3.20;;;9.50;99.90;;;;;;5114184;28;20031;-70
2023/11/03 08:56:59;;;;;;;3.10;2.30;;;9.60;99.90;;;;;;5114574;28;20071;-71
2023/11/03 08:59:24;;;;;;;8.73;2.50;;;9.60;99.90;;;;;;5113604;28;20045;-71
2023/11/03 09:01:55;;;;;;;6.10;3.45;;;9.60;99.90;;;;;;5113433;28;20031;-71
2023/11/03 09:04:22;;;;;;;7.60;3.05;;;9.60;99.90;;;;;;5114128;27;20046;-71
2023/11/03 09:06:48;;;;;;;8.10;3.55;;;9.70;99.90;;;;;;5113773;28;20082;-71
2023/11/03 09:09:14;;;;;;;6.32;3.28;;;9.70;99.90;;;;;;5113548;28;20067;-71
2023/11/03 09:11:41;;;;;;;6.28;3.00;;;9.80;99.90;;;;;;5114521;28;20039;-71
2023/11/03 09:14:08;;;;;;;10.18;3.63;;;9.70;99.90;;;;;;5114491;28;20043;-71
2023/11/03 09:16:35;;;;;;;10.57;3.42;;;9.80;99.90;;;;;;5114478;28;20035;-72
2023/11/03 09:19:01;;;;;;;10.32;4.10;;;9.80;99.90;;;;;;5107112;28;20043;-71
2023/11/03 09:21:27;;;;;;;7.95;3.63;;;9.90;99.90;;;;;;5104713;28;20044;-71
2023/11/03 09:23:52;;;;;;;7.97;3.25;;;9.90;99.90;;;;;;5097243;28;20027;-72
2023/11/03 09:26:18;;;;;;;9.32;3.50;;;9.90;99.90;;;;;;5105840;28;20049;-71
2023/11/03 09:28:44;;;;;;;8.43;3.53;;;9.90;99.90;;;;;;5114499;28;20047;-72
2023/11/03 09:31:10;;;;;;;7.60;3.60;;;9.90;99.90;;;;;;5112903;28;20047;-72
2023/11/03 09:33:36;;;;;;;10.80;4.35;;;9.90;99.90;;;;;;5114065;28;20051;-72
2023/11/03 09:36:05;;;;;;;7.65;3.60;;;10.00;99.90;;;;;;5114538;28;20043;-72
2023/11/03 09:38:32;;;;;;;8.13;4.10;;;10.00;99.90;;;;;;5114308;28;20078;-71
2023/11/03 09:40:58;;;;;;;9.57;3.85;;;10.10;99.90;;;;;;5112800;28;20410;-72
2023/11/03 09:43:23;;;;;;;8.85;4.07;;;10.20;99.90;;;;;;5113705;28;20038;-71
2023/11/03 09:45:49;;;;;;;11.55;5.18;;;10.20;99.90;;;;;;5113979;28;20039;-72
2023/11/03 09:48:19;;;;;;;9.50;4.57;;;10.20;99.90;;;;;;5114215;28;20481;-71
2023/11/03 09:50:47;;;;;;;11.75;4.22;;;10.30;99.90;;;;;;5112636;28;20388;-71
2023/11/03 09:53:18;;;;;;;7.45;3.58;;;10.40;99.90;;;;;;5095337;28;20075;-72
2023/11/03 09:55:44;;;;;;;13.48;3.80;;;10.40;99.90;;;;;;5114080;28;20050;-73
2023/11/03 09:58:10;;;;;;;14.38;4.22;;;10.50;99.90;;;;;;5113714;28;20035;-73
2023/11/03 10:00:37;;;;;;;9.95;4.63;;;10.50;99.90;;;;;;5113678;28;20043;-71
2023/11/03 10:03:04;;;;;;;9.15;4.07;;;10.60;99.90;;;;;;5111840;28;20045;-71
2023/11/03 10:05:30;;;;;;;8.48;3.67;;;10.50;99.90;;;;;;5113191;28;20039;-71
2023/11/03 10:08:07;;;;;;;9.77;3.65;;;10.50;99.90;;;;;;5112398;28;20050;-72
2023/11/03 10:10:34;;;;;;;11.82;4.68;;;10.50;99.90;;;;;;5113582;28;20032;-71
2023/11/03 10:13:11;;;;;;;11.80;4.40;;;10.50;99.90;;;;;;5113184;28;20050;-71
2023/11/03 10:15:38;;;;;;;12.20;4.43;;;10.50;99.90;;;;;;5112445;28;20430;-71
2023/11/03 10:18:04;;;;;;;9.77;4.07;;;10.50;99.90;;;;;;5113191;27;20418;-73
2023/11/03 10:20:30;;;;;;;9.45;3.75;;;10.60;99.90;;;;;;5113115;28;20028;-73
2023/11/03 10:22:56;;;;;;;15.15;3.55;;;10.50;99.90;;;;;;5111854;28;20502;-71
2023/11/03 10:25:26;;;;;;;11.45;3.22;;;10.60;99.90;;;;;;5113227;28;20055;-71
2023/11/03 10:27:54;;;;;;;12.85;3.00;;;10.60;99.90;;;;;;5111530;28;20548;-71
2023/11/03 10:30:21;;;;;;;9.55;3.05;;;10.70;99.90;;;;;;5110169;28;20044;-72
2023/11/03 10:32:47;;;;;;;10.90;3.65;;;10.70;99.90;;;;;;5113064;28;20084;-71
2023/11/03 10:35:13;;;;;;;13.82;4.25;;;10.80;99.90;;;;;;5111342;28;20032;-72
2023/11/03 10:37:40;;;;;;;8.98;3.70;;;10.90;99.90;;;;;;5112360;28;20028;-72
2023/11/03 10:40:13;;;;;;;14.23;4.72;;;10.90;99.90;;;;;;5112586;28;20081;-74
2023/11/03 10:42:50;;;;;;;8.97;3.20;;;10.90;99.90;;;;;;5112956;28;20039;-74
2023/11/03 10:45:17;;;;;;;10.50;4.07;;;10.90;99.90;;;;;;5094534;28;20120;-74
2023/11/03 10:47:49;;;;;;;9.45;3.63;;;10.80;99.90;;;;;;5112928;28;20078;-74
2023/11/03 10:50:18;;;;;;;8.25;3.70;;;10.90;99.90;;;;;;5110676;28;20104;-72
2023/11/03 10:53:43;;;;;;;13.07;4.68;;;10.90;99.90;;;;;;5110501;28;20096;-72
2023/11/03 10:56:10;;;;;;;10.73;3.25;;;11.00;99.90;;;;;;5032838;28;20033;-72
2023/11/03 10:58:37;;;;;;;7.28;3.30;;;10.90;99.90;;;;;;5079325;28;20490;-72
2023/11/03 11:01:21;;;;;;;12.57;3.47;;;11.00;99.90;;;;;;5090716;28;20047;-71
2023/11/03 11:04:12;;;;;;;14.80;3.10;;;11.00;99.90;;;;;;5091101;28;20040;-72
2023/11/03 11:06:43;;;;;;;11.48;3.80;;;10.90;99.90;;;;;;5102969;28;20415;-72
2023/11/03 11:09:20;;;;;;;14.50;4.50;;;10.90;99.90;;;;;;5111886;28;20039;-71
2023/11/03 11:11:47;;;;;;;9.68;3.92;;;10.90;99.90;;;;;;5110548;28;20044;-72
2023/11/03 11:14:23;;;;;;;12.68;4.10;;;11.00;99.90;;;;;;5110963;28;20047;-75
2023/11/03 11:16:56;;;;;;;11.95;4.43;;;10.90;99.90;;;;;;5110958;28;20042;-75
2023/11/03 11:19:38;;;;;;;10.10;3.15;;;11.00;99.90;;;;;;5111308;28;20118;-75
2023/11/03 11:22:08;;;;;;;13.93;4.25;;;11.10;99.90;;;;;;5110886;28;20051;-75
2023/11/03 11:24:36;;;;;;;12.80;3.25;;;11.20;99.90;;;;;;5110859;28;20062;-75
2023/11/03 11:27:20;;;;;;;10.05;2.80;;;11.20;99.90;;;;;;5093756;28;20027;-75
2023/11/03 11:29:49;;;;;;;9.63;3.05;;;11.20;99.90;;;;;;5110920;28;20035;-75
2023/11/03 11:32:17;;;;;;;10.13;3.30;;;11.30;99.90;;;;;;5110845;28;20047;-75
2023/11/03 11:34:44;;;;;;;9.73;2.78;;;11.30;99.90;;;;;;5111080;28;20040;-75
2023/11/03 11:37:28;;;;;;;12.65;3.13;;;11.30;99.90;;;;;;5110946;28;20050;-77
2023/11/03 11:40:02;;;;;;;12.13;3.97;;;11.30;99.90;;;;;;5110980;28;20380;-75
2023/11/03 11:42:42;;;;;;;14.05;2.88;;;11.40;99.90;;;;;;5110613;28;20047;-75
2023/11/03 11:45:13;;;;;;;13.88;2.97;;;11.40;99.90;;;;;;5110669;28;20042;-75
2023/11/03 11:47:44;;;;;;;13.60;3.28;;;11.50;99.90;;;;;;5110608;28;20130;-75
2023/11/03 11:50:13;;;;;;;12.95;3.10;;;11.50;99.90;;;;;;5110617;28;20043;-75
2023/11/03 11:52:40;;;;;;;14.10;2.72;;;11.50;99.90;;;;;;5110748;28;20044;-75
2023/11/03 11:55:05;;;;;;;7.93;2.83;;;11.50;99.90;;;;;;5110771;28;20028;-75
2023/11/03 11:57:32;;;;;;;12.77;2.72;;;11.50;99.90;;;;;;5110714;28;20479;-75
2023/11/03 11:59:58;;;;;;;10.55;3.35;;;11.40;99.90;;;;;;5110431;28;20522;-75
2023/11/03 12:02:25;;;;;;;15.88;2.47;;;11.40;99.90;;;;;;5110748;28;20075;-75
2023/11/03 12:04:55;;;;;;;12.55;2.53;;;11.40;99.90;;;;;;5110754;28;20130;-75
2023/11/03 12:07:29;;;;;;;11.02;2.15;;;11.30;99.90;;;;;;5110511;28;20047;-75
2023/11/03 12:09:54;;;;;;;;;;;11.40;99.90;;;;;;5111423;28;20073;-75
2023/11/03 12:12:24;;;;;;;7.72;2.28;;;11.50;99.90;;;;;;5110558;28;19920;-75
2023/11/03 12:14:50;;;;;;;13.25;2.40;;;11.50;99.90;;;;;;5110756;28;20066;-75
2023/11/03 12:17:20;;;;;;;12.38;2.67;;;11.60;99.90;;;;;;5110759;28;20034;-75
2023/11/03 12:19:50;;;;;;;10.75;2.60;;;11.60;99.90;;;;;;5111666;28;20447;-75
2023/11/03 12:22:20;;;;;;;11.30;3.15;;;11.60;99.90;;;;;;5110396;28;20082;-75
2023/11/03 12:24:47;;;;;;;12.68;2.90;;;11.60;99.90;;;;;;5110298;28;20035;-75
2023/11/03 12:27:13;;;;;;;7.95;2.60;;;11.70;99.90;;;;;;5110466;28;20047;-74
2023/11/03 12:29:39;;;;;;;13.77;2.55;;;11.70;99.90;;;;;;5110435;28;20040;-75
2023/11/03 12:32:05;;;;;;;11.57;2.28;;;11.70;99.90;;;;;;5110235;28;20040;-75
2023/11/03 12:34:31;;;;;;;5.82;2.70;;;11.80;99.90;;;;;;5111567;28;20039;-75
2023/11/03 12:36:58;;;;;;;8.32;2.13;;;11.80;99.90;;;;;;5111557;28;20489;-74
2023/11/03 12:39:24;;;;;;;9.27;3.15;;;11.80;99.90;;;;;;5112355;28;20092;-75
2023/11/03 12:42:07;;;;;;;9.13;2.47;;;11.80;99.90;;;;;;5113875;28;20043;-75
2023/11/03 12:45:00;;;;;;;11.95;2.38;;;11.80;99.90;;;;;;5114180;28;20114;-75
2023/11/03 12:47:46;;;;;;;9.20;1.83;;;11.70;99.90;;;;;;5114049;28;20110;-75
2023/11/03 12:50:16;;;;;;;10.02;2.58;;;11.60;99.90;;;;;;5113729;28;20503;-75
2023/11/03 12:52:46;;;;;;;7.25;2.25;;;11.70;99.90;;;;;;5113779;28;20044;-75
2023/11/03 12:55:12;;;;;;;7.28;1.88;;;11.60;99.90;;;;;;5096856;28;20075;-75